createdAt,value
2022-12-19T00:01:02.516Z,-1.70
2022-12-19T00:03:51.174Z,-1.70
2022-12-19T00:06:43.739Z,-1.70
2022-12-19T00:09:32.593Z,-1.60
2022-12-19T00:12:25.856Z,-1.60
2022-12-19T00:15:15.075Z,-1.60
2022-12-19T00:18:03.054Z,-1.60
2022-12-19T00:20:57.649Z,-1.60
2022-12-19T00:23:45.878Z,-1.60
2022-12-19T00:26:34.453Z,-1.60
2022-12-19T00:29:22.306Z,-1.60
2022-12-19T00:32:12.519Z,-1.60
2022-12-19T00:35:03.760Z,-1.60
2022-12-19T00:37:51.662Z,-1.60
2022-12-19T00:40:39.541Z,-1.60
2022-12-19T00:43:27.959Z,-1.60
2022-12-19T00:46:18.927Z,-1.50
2022-12-19T00:49:08.812Z,-1.50
2022-12-19T00:51:57.971Z,-1.30
2022-12-19T00:54:46.006Z,-1.40
2022-12-19T00:57:33.925Z,-1.40
2022-12-19T01:00:21.866Z,-1.50
2022-12-19T01:03:09.850Z,-1.40
2022-12-19T01:06:00.321Z,-1.40
2022-12-19T01:08:48.227Z,-1.40
2022-12-19T01:11:53.741Z,-1.40
2022-12-19T01:14:41.695Z,-1.40
2022-12-19T01:17:29.650Z,-1.50
2022-12-19T01:20:24.314Z,-1.50
2022-12-19T01:23:18.602Z,-1.40
2022-12-19T01:26:06.507Z,-1.40
2022-12-19T01:28:54.383Z,-1.40
2022-12-19T01:31:42.318Z,-1.40
2022-12-19T01:34:30.253Z,-1.40
2022-12-19T01:37:18.251Z,-1.40
2022-12-19T01:40:08.496Z,-1.50
2022-12-19T01:42:56.389Z,-1.50
2022-12-19T01:45:46.138Z,-1.40
2022-12-19T01:48:35.800Z,-1.40
2022-12-19T01:51:26.801Z,-1.40
2022-12-19T01:54:17.072Z,-1.40
2022-12-19T01:57:09.228Z,-1.30
2022-12-19T01:59:58.648Z,-1.30
2022-12-19T02:02:49.703Z,-1.30
2022-12-19T02:05:38.297Z,-1.30
2022-12-19T02:08:26.347Z,-1.20
2022-12-19T02:11:14.604Z,-1.40
2022-12-19T02:14:03.942Z,-1.30
2022-12-19T02:16:54.812Z,-1.30
2022-12-19T02:19:56.277Z,-1.30
2022-12-19T02:22:48.531Z,-1.20
2022-12-19T02:25:48.444Z,-1.30
2022-12-19T02:28:53.732Z,-1.20
2022-12-19T02:31:46.768Z,-1.20
2022-12-19T02:34:41.340Z,-1.30
2022-12-19T02:37:33.825Z,-1.20
2022-12-19T02:40:24.269Z,-1.30
2022-12-19T02:43:12.889Z,-1.20
2022-12-19T02:46:01.834Z,-1.20
2022-12-19T02:48:51.260Z,-1.20
2022-12-19T02:51:39.163Z,-1.20
2022-12-19T02:54:27.069Z,-1.20
2022-12-19T02:57:18.159Z,-1.20
2022-12-19T03:00:07.417Z,-1.20
2022-12-19T03:03:00.959Z,-1.20
2022-12-19T03:05:55.335Z,-1.30
2022-12-19T03:08:47.247Z,-1.20
2022-12-19T03:11:36.430Z,-1.20
2022-12-19T03:14:24.929Z,-1.20
2022-12-19T03:17:12.794Z,-1.20
2022-12-19T03:20:00.743Z,-1.20
2022-12-19T03:22:50.034Z,-1.20
2022-12-19T03:25:38.185Z,-1.20
2022-12-19T03:28:28.630Z,-1.10
2022-12-19T03:31:18.522Z,-1.10
2022-12-19T03:34:09.392Z,-1.20
2022-12-19T03:37:00.060Z,-1.10
2022-12-19T03:39:50.789Z,-1.20
2022-12-19T03:42:57.276Z,-1.10
2022-12-19T03:45:49.052Z,-1.10
2022-12-19T03:48:39.428Z,-1.10
2022-12-19T03:51:30.675Z,-1.20
2022-12-19T03:54:21.607Z,-1.20
2022-12-19T03:57:13.073Z,-1.20
2022-12-19T04:00:03.222Z,-1.20
2022-12-19T04:02:52.125Z,-1.10
2022-12-19T04:05:41.504Z,-1.10
2022-12-19T04:08:31.424Z,-1.10
2022-12-19T04:11:20.583Z,-1.10
2022-12-19T04:14:12.340Z,-1.10
2022-12-19T04:17:05.189Z,-1.10
2022-12-19T04:19:56.775Z,-1.10
2022-12-19T04:22:48.430Z,-1.10
2022-12-19T04:25:38.011Z,-1.10
2022-12-19T04:28:27.428Z,-1.20
2022-12-19T04:31:17.476Z,-1.10
2022-12-19T04:34:05.415Z,-1.00
2022-12-19T04:36:53.316Z,-1.10
2022-12-19T04:39:41.204Z,-1.10
2022-12-19T04:42:29.063Z,-1.10
2022-12-19T04:45:18.085Z,-1.10
2022-12-19T04:48:08.193Z,-1.10
2022-12-19T04:50:57.447Z,-0.90
2022-12-19T04:53:45.371Z,-0.90
2022-12-19T04:56:33.295Z,-0.90
2022-12-19T04:59:21.226Z,-0.90
2022-12-19T05:02:09.208Z,-0.90
2022-12-19T05:04:58.497Z,-0.90
2022-12-19T05:07:46.940Z,-0.90
2022-12-19T05:10:34.819Z,-0.90
2022-12-19T05:13:22.818Z,-0.90
2022-12-19T05:16:11.467Z,-0.80
2022-12-19T05:18:59.378Z,-0.80
2022-12-19T05:21:48.835Z,-0.80
2022-12-19T05:24:36.754Z,-0.80
2022-12-19T05:27:24.604Z,-0.80
2022-12-19T05:30:12.854Z,-0.70
2022-12-19T05:33:01.354Z,-0.70
2022-12-19T05:35:49.531Z,-0.70
2022-12-19T05:38:38.790Z,-0.80
2022-12-19T05:41:26.739Z,-0.70
2022-12-19T05:44:14.693Z,-0.90
2022-12-19T05:47:02.589Z,-0.70
2022-12-19T05:49:50.479Z,-0.70
2022-12-19T05:52:38.394Z,-0.70
2022-12-19T05:55:27.623Z,-0.70
2022-12-19T05:58:15.475Z,-0.60
2022-12-19T06:01:04.204Z,-0.60
2022-12-19T06:03:52.250Z,-0.60
2022-12-19T06:06:40.251Z,-0.50
2022-12-19T06:09:28.147Z,-0.50
2022-12-19T06:12:17.401Z,-0.50
2022-12-19T06:15:05.557Z,-0.50
2022-12-19T06:17:54.262Z,-0.40
2022-12-19T06:20:42.114Z,-0.50
2022-12-19T06:23:30.651Z,-0.50
2022-12-19T06:26:20.419Z,-0.50
2022-12-19T06:29:12.134Z,-0.40
2022-12-19T06:32:00.154Z,-0.40
2022-12-19T06:35:03.622Z,-0.40
2022-12-19T06:37:54.405Z,-0.40
2022-12-19T06:41:03.979Z,-0.40
2022-12-19T06:43:53.583Z,-0.40
2022-12-19T06:46:43.179Z,-0.30
2022-12-19T06:49:31.204Z,-0.30
2022-12-19T06:52:19.070Z,-0.30
2022-12-19T06:55:07.679Z,-0.30
2022-12-19T06:57:55.593Z,-0.30
2022-12-19T07:00:43.561Z,-0.40
2022-12-19T07:03:37.160Z,-0.30
2022-12-19T07:06:25.032Z,-0.30
2022-12-19T07:09:12.905Z,-0.30
2022-12-19T07:12:00.776Z,-0.30
2022-12-19T07:14:53.181Z,-0.30
2022-12-19T07:17:41.611Z,-0.30
2022-12-19T07:20:32.733Z,-0.30
2022-12-19T07:23:22.043Z,-0.30
2022-12-19T07:26:10.083Z,-0.30
2022-12-19T07:28:58.013Z,-0.30
2022-12-19T07:31:46.277Z,-0.30
2022-12-19T07:34:34.310Z,-0.30
2022-12-19T07:37:23.637Z,-0.20
2022-12-19T07:40:12.167Z,-0.20
2022-12-19T07:43:00.323Z,-0.20
2022-12-19T07:45:48.253Z,-0.20
2022-12-19T07:48:36.149Z,-0.20
2022-12-19T07:51:24.081Z,-0.20
2022-12-19T07:54:13.496Z,-0.20
2022-12-19T07:57:02.055Z,-0.20
2022-12-19T07:59:50.132Z,-0.10
2022-12-19T08:02:38.166Z,-0.10
2022-12-19T08:05:26.218Z,-0.10
2022-12-19T08:08:14.133Z,-0.10
2022-12-19T08:11:08.561Z,-0.10
2022-12-19T08:13:56.484Z,-0.10
2022-12-19T08:17:18.769Z,-0.10
2022-12-19T08:19:53.192Z,-0.10
2022-12-19T08:22:41.184Z,-0.10
2022-12-19T08:25:29.169Z,-0.10
2022-12-19T08:28:18.475Z,-0.10
2022-12-19T08:31:07.622Z,-0.10
2022-12-19T08:33:56.752Z,-0.10
2022-12-19T08:36:44.876Z,-0.20
2022-12-19T08:39:32.925Z,0.00
2022-12-19T08:42:20.902Z,0.00
2022-12-19T08:45:10.578Z,0.00
2022-12-19T08:47:58.492Z,0.00
2022-12-19T08:50:53.323Z,0.00
2022-12-19T08:53:41.935Z,0.00
2022-12-19T08:56:29.890Z,0.00
2022-12-19T08:59:24.405Z,0.00
2022-12-19T09:02:24.921Z,0.10
2022-12-19T09:06:03.385Z,0.10
2022-12-19T09:08:21.015Z,0.20
2022-12-19T09:11:09.921Z,0.20
2022-12-19T09:13:58.504Z,0.20
2022-12-19T09:16:46.548Z,0.20
2022-12-19T09:19:35.926Z,0.20
2022-12-19T09:22:29.544Z,0.30
2022-12-19T09:25:17.609Z,0.30
2022-12-19T09:31:14.648Z,0.30
2022-12-19T09:34:02.541Z,0.40
2022-12-19T09:36:51.983Z,0.40
2022-12-19T09:39:39.873Z,0.40
2022-12-19T09:42:46.649Z,0.40
2022-12-19T09:45:47.988Z,0.40
2022-12-19T09:48:35.862Z,0.50
2022-12-19T09:51:31.288Z,0.50
2022-12-19T09:54:24.226Z,0.50
2022-12-19T09:57:14.487Z,0.50
2022-12-19T10:00:06.070Z,0.50
2022-12-19T10:02:57.329Z,0.50
2022-12-19T10:06:58.113Z,0.60
2022-12-19T10:10:53.771Z,0.60
2022-12-19T10:12:44.698Z,0.70
2022-12-19T10:15:22.060Z,0.70
2022-12-19T10:18:15.464Z,0.70
2022-12-19T10:21:06.872Z,0.70
2022-12-19T10:24:00.705Z,0.70
2022-12-19T10:26:52.179Z,0.70
2022-12-19T10:29:49.149Z,0.70
2022-12-19T10:32:40.930Z,0.70
2022-12-19T10:35:33.361Z,0.70
2022-12-19T10:38:25.442Z,0.70
2022-12-19T10:41:16.655Z,0.70
2022-12-19T10:44:05.910Z,0.80
2022-12-19T10:46:55.263Z,0.80
2022-12-19T10:49:43.413Z,0.80
2022-12-19T10:52:47.137Z,0.80
2022-12-19T10:55:39.056Z,0.80
2022-12-19T10:58:27.904Z,0.80
2022-12-19T11:01:16.999Z,0.90
2022-12-19T11:04:26.752Z,0.90
2022-12-19T11:07:19.751Z,0.90
2022-12-19T11:12:12.941Z,0.90
2022-12-19T11:19:18.720Z,0.90
2022-12-19T11:23:59.842Z,0.90
2022-12-19T11:29:25.268Z,1.00
2022-12-19T11:29:46.488Z,1.00
2022-12-19T11:30:45.510Z,1.00
2022-12-19T11:33:08.660Z,1.00
2022-12-19T11:35:59.383Z,1.00
2022-12-19T11:38:52.926Z,1.10
2022-12-19T11:41:42.952Z,1.10
2022-12-19T11:44:33.591Z,1.10
2022-12-19T11:47:26.471Z,1.10
2022-12-19T11:50:15.837Z,1.10
2022-12-19T11:53:14.854Z,1.10
2022-12-19T11:56:15.874Z,1.10
2022-12-19T11:59:12.219Z,1.00
2022-12-19T12:02:05.497Z,1.10
2022-12-19T12:05:06.335Z,1.20
2022-12-19T12:09:31.127Z,1.10
2022-12-19T12:16:25.344Z,1.20
2022-12-19T12:30:02.485Z,1.20
2022-12-19T12:31:07.544Z,1.20
2022-12-19T12:31:41.758Z,1.20
2022-12-19T12:31:46.583Z,1.20
2022-12-19T12:31:55.330Z,1.20
2022-12-19T12:31:57.251Z,1.20
2022-12-19T12:35:46.386Z,1.30
2022-12-19T12:40:35.760Z,1.30
2022-12-19T12:43:33.307Z,1.30
2022-12-19T12:46:23.504Z,1.30
2022-12-19T12:49:23.207Z,1.40
2022-12-19T12:52:15.246Z,1.40
2022-12-19T12:55:05.799Z,1.40
2022-12-19T12:57:53.772Z,1.40
2022-12-19T13:01:02.974Z,1.40
2022-12-19T13:03:54.987Z,1.40
2022-12-19T13:06:43.708Z,1.40
2022-12-19T13:09:32.477Z,1.40
2022-12-19T13:12:42.932Z,1.40
2022-12-19T13:15:41.623Z,1.50
2022-12-19T13:18:35.051Z,1.50
2022-12-19T13:21:23.445Z,1.50
2022-12-19T13:24:16.187Z,1.50
2022-12-19T13:27:04.451Z,1.50
2022-12-19T13:29:57.283Z,1.60
2022-12-19T13:33:04.117Z,1.50
2022-12-19T13:39:46.617Z,1.60
2022-12-19T13:39:57.946Z,1.60
2022-12-19T13:42:30.645Z,1.60
2022-12-19T13:45:23.347Z,1.70
2022-12-19T13:48:15.142Z,1.70
2022-12-19T13:51:07.149Z,1.70
2022-12-19T13:53:59.824Z,1.70
2022-12-19T13:56:48.354Z,1.70
2022-12-19T13:59:38.869Z,1.80
2022-12-19T14:02:28.485Z,1.80
2022-12-19T14:05:48.481Z,1.80
2022-12-19T14:08:34.356Z,1.90
2022-12-19T14:11:35.928Z,1.80
2022-12-19T14:14:49.308Z,1.80
2022-12-19T14:17:57.139Z,1.80
2022-12-19T14:22:04.659Z,1.90
2022-12-19T14:24:23.910Z,1.90
2022-12-19T14:28:17.938Z,1.90
2022-12-19T14:30:30.060Z,2.00
2022-12-19T14:33:46.086Z,2.00
2022-12-19T14:36:32.023Z,2.00
2022-12-19T14:39:29.207Z,2.00
2022-12-19T14:43:55.712Z,2.00
2022-12-19T14:51:51.498Z,2.00
2022-12-19T14:53:36.596Z,2.10
2022-12-19T14:54:29.931Z,2.10
2022-12-19T14:56:04.675Z,2.10
2022-12-19T14:58:55.580Z,2.10
2022-12-19T15:01:37.924Z,2.10
2022-12-19T15:04:52.057Z,2.10
2022-12-19T15:07:36.184Z,2.20
2022-12-19T15:11:06.609Z,2.20
2022-12-19T15:14:54.465Z,2.20
2022-12-19T15:16:41.881Z,2.30
2022-12-19T15:19:31.445Z,2.20
2022-12-19T15:22:19.912Z,2.20
2022-12-19T15:25:17.593Z,2.20
2022-12-19T15:28:17.265Z,2.20
2022-12-19T15:31:10.750Z,2.20
2022-12-19T15:37:06.744Z,2.20
2022-12-19T15:39:54.657Z,2.20
2022-12-19T15:42:43.048Z,2.20
2022-12-19T15:45:31.848Z,2.30
2022-12-19T15:48:21.593Z,2.30
2022-12-19T15:51:10.489Z,2.30
2022-12-19T15:54:15.613Z,2.20
2022-12-19T15:57:07.307Z,2.30
2022-12-19T15:59:56.951Z,2.20
2022-12-19T16:05:56.429Z,2.20
2022-12-19T16:08:44.706Z,2.30
2022-12-19T16:11:35.238Z,2.30
2022-12-19T16:14:23.745Z,2.30
2022-12-19T16:17:14.486Z,2.30
2022-12-19T16:20:02.366Z,2.30
2022-12-19T16:22:52.187Z,2.40
2022-12-19T16:25:41.498Z,2.40
2022-12-19T16:28:31.104Z,2.30
2022-12-19T16:31:23.247Z,2.40
2022-12-19T16:34:15.862Z,2.40
2022-12-19T16:37:04.061Z,2.40
2022-12-19T16:39:53.482Z,2.40
2022-12-19T16:42:41.803Z,2.40
2022-12-19T16:45:30.127Z,2.40
2022-12-19T16:48:22.267Z,2.40
2022-12-19T16:51:17.505Z,2.50
2022-12-19T16:54:06.207Z,2.50
2022-12-19T16:56:56.034Z,2.50
2022-12-19T16:59:44.531Z,2.50
2022-12-19T17:02:42.116Z,2.50
2022-12-19T17:05:31.125Z,2.50
2022-12-19T17:08:19.555Z,2.60
2022-12-19T17:11:13.038Z,2.50
2022-12-19T17:14:04.207Z,2.50
2022-12-19T17:16:53.429Z,2.50
2022-12-19T17:19:46.057Z,2.60
2022-12-19T17:22:33.927Z,2.60
2022-12-19T17:25:25.513Z,2.60
2022-12-19T17:28:14.095Z,2.60
2022-12-19T17:31:07.892Z,2.70
2022-12-19T17:33:57.775Z,2.50
2022-12-19T17:36:46.303Z,2.40
2022-12-19T17:39:35.259Z,2.40
2022-12-19T17:42:24.265Z,2.40
2022-12-19T17:45:12.357Z,2.50
2022-12-19T17:48:03.375Z,2.50
2022-12-19T17:50:52.944Z,2.50
2022-12-19T17:53:41.158Z,2.50
2022-12-19T17:56:32.881Z,2.50
2022-12-19T17:59:21.353Z,2.40
2022-12-19T18:02:18.228Z,2.40
2022-12-19T18:05:13.755Z,2.40
2022-12-19T18:08:01.601Z,2.50
2022-12-19T18:10:52.086Z,2.50
2022-12-19T18:13:45.955Z,2.50
2022-12-19T18:16:33.887Z,2.50
2022-12-19T18:19:22.986Z,2.50
2022-12-19T18:22:22.626Z,2.50
2022-12-19T18:25:16.610Z,2.50
2022-12-19T18:28:04.456Z,2.50
2022-12-19T18:30:53.550Z,2.50
2022-12-19T18:33:42.490Z,2.50
2022-12-19T18:36:35.811Z,2.50
2022-12-19T18:39:26.475Z,2.50
2022-12-19T18:42:19.727Z,2.60
2022-12-19T18:45:08.963Z,2.60
2022-12-19T18:47:58.496Z,2.60
2022-12-19T18:50:47.499Z,2.70
2022-12-19T18:53:36.613Z,2.70
2022-12-19T18:56:25.889Z,2.70
2022-12-19T18:59:13.814Z,2.70
2022-12-19T19:02:01.829Z,2.70
2022-12-19T19:04:50.132Z,2.60
2022-12-19T19:07:37.986Z,2.60
2022-12-19T19:10:30.074Z,2.60
2022-12-19T19:13:20.093Z,2.70
2022-12-19T19:16:13.760Z,2.70
2022-12-19T19:19:01.725Z,2.70
2022-12-19T19:21:49.672Z,2.70
2022-12-19T19:24:37.651Z,2.70
2022-12-19T19:27:25.715Z,2.70
2022-12-19T19:30:15.351Z,2.70
2022-12-19T19:33:07.392Z,2.70
2022-12-19T19:35:59.111Z,2.70
2022-12-19T19:38:50.334Z,2.70
2022-12-19T19:41:38.276Z,2.70
2022-12-19T19:44:29.088Z,2.70
2022-12-19T19:47:18.382Z,2.90
2022-12-19T19:50:07.248Z,2.80
2022-12-19T19:52:55.401Z,2.80
2022-12-19T19:55:43.287Z,2.80
2022-12-19T19:58:31.644Z,2.80
2022-12-19T20:01:19.692Z,2.80
2022-12-19T20:04:09.225Z,2.70
2022-12-19T20:06:57.208Z,2.80
2022-12-19T20:09:46.723Z,2.70
2022-12-19T20:12:35.122Z,2.80
2022-12-19T20:15:23.008Z,2.80
2022-12-19T20:18:14.719Z,2.80
2022-12-19T20:21:10.743Z,2.90
2022-12-19T20:24:01.570Z,2.90
2022-12-19T20:26:49.651Z,2.90
2022-12-19T20:29:39.213Z,2.90
2022-12-19T20:32:27.117Z,2.90
2022-12-19T20:35:16.090Z,2.90
2022-12-19T20:38:05.594Z,2.90
2022-12-19T20:40:55.848Z,2.90
2022-12-19T20:43:44.898Z,2.90
2022-12-19T20:46:33.071Z,2.90
2022-12-19T20:49:21.569Z,3.00
2022-12-19T20:52:09.530Z,3.00
2022-12-19T20:54:58.784Z,3.00
2022-12-19T20:57:46.664Z,3.00
2022-12-19T21:00:34.549Z,3.00
2022-12-19T21:03:30.371Z,3.00
2022-12-19T21:06:20.091Z,3.00
2022-12-19T21:09:08.052Z,3.00
2022-12-19T21:11:57.338Z,3.00
2022-12-19T21:14:45.412Z,3.00
2022-12-19T21:17:33.363Z,3.00
2022-12-19T21:20:21.316Z,3.10
2022-12-19T21:23:12.224Z,3.10
2022-12-19T21:26:01.490Z,3.00
2022-12-19T21:28:51.175Z,3.10
2022-12-19T21:31:39.193Z,3.10
2022-12-19T21:34:27.066Z,3.10
2022-12-19T21:37:15.038Z,3.10
2022-12-19T21:40:03.895Z,3.10
2022-12-19T21:42:51.772Z,3.10
2022-12-19T21:45:41.417Z,3.10
2022-12-19T21:48:29.308Z,3.10
2022-12-19T21:51:18.520Z,3.10
2022-12-19T21:54:07.005Z,3.10
2022-12-19T21:56:56.256Z,3.10
2022-12-19T21:59:44.934Z,3.20
2022-12-19T22:02:34.608Z,3.20
2022-12-19T22:05:22.549Z,3.20
2022-12-19T22:08:10.808Z,3.20
2022-12-19T22:10:59.455Z,3.30
2022-12-19T22:13:48.412Z,3.30
2022-12-19T22:16:36.978Z,3.30
2022-12-19T22:19:26.247Z,3.30
2022-12-19T22:22:14.188Z,3.30
2022-12-19T22:25:02.043Z,3.30
2022-12-19T22:27:49.976Z,3.30
2022-12-19T22:30:37.879Z,3.30
2022-12-19T22:33:25.761Z,3.40
2022-12-19T22:36:15.904Z,3.40
2022-12-19T22:39:05.498Z,3.40
2022-12-19T22:41:53.921Z,3.40
2022-12-19T22:44:41.786Z,3.50
2022-12-19T22:47:29.693Z,3.40
2022-12-19T22:50:17.714Z,3.40
2022-12-19T22:53:12.523Z,3.40
2022-12-19T22:56:06.143Z,3.50
2022-12-19T22:58:54.734Z,3.40
2022-12-19T23:01:43.765Z,3.50
2022-12-19T23:04:31.783Z,3.50
2022-12-19T23:07:19.654Z,3.50
2022-12-19T23:10:09.915Z,3.50
2022-12-19T23:12:57.796Z,3.50
2022-12-19T23:15:45.801Z,3.60
2022-12-19T23:18:34.219Z,3.60
2022-12-19T23:21:23.282Z,3.60
2022-12-19T23:24:14.473Z,3.60
2022-12-19T23:27:03.753Z,3.60
2022-12-19T23:29:51.603Z,3.60
2022-12-19T23:32:40.973Z,3.60
2022-12-19T23:35:33.372Z,3.60
2022-12-19T23:38:21.245Z,3.60
2022-12-19T23:41:10.889Z,3.60
2022-12-19T23:44:00.412Z,3.60
2022-12-19T23:46:48.331Z,3.60
2022-12-19T23:49:36.367Z,3.60
2022-12-19T23:52:24.285Z,3.60
2022-12-19T23:55:12.509Z,3.60
2022-12-19T23:58:00.380Z,3.60
